Řízení letového provozu České republiky
Letiste: LKPR Aktualizace: 28.09.2016 22:04:05  UTC
 METAR LKPR 28.09. 22:00 ...
METAR LKPR 282200Z 24015KT CAVOK 16/09 Q1024 NOSIG=
 TAF LKPR 28.09. 17:00 ...
TAF LKPR 281700Z 2818/2924 25010KT CAVOK      TEMPO 2907/2912 23012G25KT=